Time;durP1;ratioP1;P1;durP2;ratioP2;P2;SDS_P1;SDS_P2;PMS_P1;PMS_P2;Temp;Humidity;BMP_temperature;BMP_pressure;BME280_temperature;BME280_humidity;BME280_pressure;Samples;Min_cycle;Max_cycle;Signal;HPM_P1;HPM_P2
2021/10/11 05:32:16;;;;;;;;;20.50;18.50;;;;;14.02;73.69;102624.50;5972946;22;45547;-81
2021/10/11 05:34:42;;;;;;;;;16.75;16.75;;;;;14.05;73.45;102627.09;5047047;28;46758;-83
2021/10/11 05:37:07;;;;;;;;;17.00;16.75;;;;;14.04;73.69;102638.56;5058367;28;45384;-82
2021/10/11 05:39:33;;;;;;;;;20.00;18.75;;;;;14.05;73.54;102635.03;5059935;28;45214;-82
2021/10/11 05:41:58;;;;;;;;;21.00;17.25;;;;;13.99;73.63;102633.34;5058197;28;45462;-82
2021/10/11 05:44:23;;;;;;;;;14.50;12.75;;;;;13.97;73.36;102636.94;5056134;28;45349;-82
2021/10/11 05:46:49;;;;;;;;;19.75;16.50;;;;;13.93;73.45;102646.66;5059450;28;45304;-82
2021/10/11 05:49:15;;;;;;;;;20.25;15.00;;;;;13.86;73.41;102640.59;5059245;28;45204;-80
2021/10/11 05:51:40;;;;;;;;;18.50;17.00;;;;;13.86;73.76;102637.97;5058887;28;45271;-80
2021/10/11 05:54:06;;;;;;;;;19.50;15.75;;;;;13.86;73.39;102637.97;5057091;28;45475;-80
2021/10/11 05:56:31;;;;;;;;;17.00;13.25;;;;;13.89;73.42;102637.94;5058647;28;45470;-81
2021/10/11 05:58:57;;;;;;;;;16.75;14.75;;;;;13.92;73.36;102658.16;5067224;28;45388;-81
2021/10/11 06:01:22;;;;;;;;;18.25;14.50;;;;;13.85;73.32;102660.03;5063332;28;45493;-83
2021/10/11 06:03:48;;;;;;;;;16.00;15.00;;;;;13.90;73.39;102660.81;5061023;28;46301;-83
2021/10/11 06:06:13;;;;;;;;;18.25;16.00;;;;;13.88;73.62;102667.88;5062538;28;46237;-81
2021/10/11 06:08:38;;;;;;;;;12.75;12.75;;;;;13.85;73.50;102652.09;5061946;28;45260;-81
2021/10/11 06:11:04;;;;;;;;;17.25;15.00;;;;;13.89;73.53;102660.84;5063118;28;45281;-81
2021/10/11 06:13:29;;;;;;;;;14.50;13.25;;;;;13.90;73.35;102668.72;5061174;28;45505;-81
2021/10/11 06:15:55;;;;;;;;;15.25;14.00;;;;;13.89;73.32;102667.00;5062625;28;45480;-83
2021/10/11 06:18:20;;;;;;;;;12.00;11.00;;;;;13.96;73.29;102678.34;5061923;28;45396;-83
2021/10/11 06:20:45;;;;;;;;;23.50;16.00;;;;;13.98;72.94;102683.59;5062463;28;45288;-84
2021/10/11 06:23:13;;;;;;;;;19.00;15.50;;;;;13.93;73.16;102676.63;5061946;28;45410;-83
2021/10/11 06:25:38;;;;;;;;;13.25;12.75;;;;;13.96;73.09;102678.34;5061473;28;45499;-83
2021/10/11 06:28:04;;;;;;;;;13.50;11.50;;;;;13.89;73.17;102672.28;5059826;28;45513;-83
2021/10/11 06:30:29;;;;;;;;;16.00;13.50;;;;;13.90;72.97;102678.47;5061005;28;45230;-84
2021/10/11 06:32:55;;;;;;;;;15.00;12.00;;;;;13.90;72.91;102684.59;5065288;28;45730;-84
2021/10/11 06:35:20;;;;;;;;;20.50;15.50;;;;;13.87;73.08;102678.50;5062342;28;45569;-84
2021/10/11 06:37:45;;;;;;;;;14.50;12.25;;;;;13.91;72.72;102689.00;5061587;28;45444;-84
2021/10/11 06:40:11;;;;;;;;;14.00;12.50;;;;;13.95;72.74;102690.69;5061353;28;46978;-84
2021/10/11 06:42:36;;;;;;;;;12.75;12.75;;;;;13.91;72.55;102694.28;5059620;28;45198;-83
2021/10/11 06:45:02;;;;;;;;;15.50;11.25;;;;;13.92;72.53;102687.22;5061807;28;45569;-84
2021/10/11 06:47:27;;;;;;;;;13.50;11.75;;;;;13.89;72.30;102680.22;5061701;28;45523;-83
2021/10/11 06:49:53;;;;;;;;;13.50;10.25;;;;;13.86;72.47;102685.53;5061012;28;45391;-83
2021/10/11 06:52:18;;;;;;;;;10.25;9.00;;;;;13.85;72.38;102689.09;5060704;28;45408;-82
2021/10/11 06:54:44;;;;;;;;;11.25;9.75;;;;;13.84;72.19;102693.50;5055249;28;45396;-83
2021/10/11 06:57:09;;;;;;;;;11.50;11.50;;;;;13.84;72.31;102690.88;5057283;28;45505;-83
2021/10/11 06:59:35;;;;;;;;;11.00;9.75;;;;;13.88;72.44;102696.13;5061998;28;45319;-83
2021/10/11 07:02:02;;;;;;;;;11.50;10.25;;;;;13.91;72.07;102702.22;5061864;28;45421;-83
2021/10/11 07:04:29;;;;;;;;;13.25;10.00;;;;;13.88;72.23;102702.25;5052038;28;46126;-83
2021/10/11 07:06:54;;;;;;;;;13.75;12.50;;;;;13.86;71.97;102698.75;5062002;28;45247;-83
2021/10/11 07:09:20;;;;;;;;;10.75;10.25;;;;;13.86;71.90;102698.75;5058703;28;45579;-83
2021/10/11 07:11:48;;;;;;;;;16.00;7.50;;;;;13.83;71.89;102699.69;5061879;28;45511;-83
2021/10/11 07:14:14;;;;;;;;;12.00;12.00;;;;;13.81;71.92;102695.31;5061172;28;45491;-83
2021/10/11 07:16:39;;;;;;;;;12.50;10.00;;;;;13.84;72.00;102700.56;5059075;28;45831;-84
2021/10/11 07:19:04;;;;;;;;;14.75;11.25;;;;;13.80;71.67;102707.66;5060446;28;46771;-83
2021/10/11 07:21:30;;;;;;;;;10.50;10.00;;;;;13.79;71.61;102700.63;5061339;28;45519;-83
2021/10/11 07:23:55;;;;;;;;;10.50;10.50;;;;;13.80;71.77;102702.34;5061642;28;45384;-83
2021/10/11 07:26:20;;;;;;;;;9.75;8.25;;;;;13.84;71.29;102712.00;5065155;28;45301;-82
2021/10/11 07:28:46;;;;;;;;;9.50;8.50;;;;;13.81;71.21;102712.06;5067418;28;45279;-83
2021/10/11 07:31:11;;;;;;;;;8.75;6.75;;;;;13.86;71.11;102725.19;5061252;28;45471;-83
2021/10/11 07:33:36;;;;;;;;;7.00;7.00;;;;;13.83;71.43;102722.59;5066654;28;45565;-84
2021/10/11 07:36:02;;;;;;;;;12.00;10.75;;;;;13.89;71.14;102734.84;5065205;27;45362;-83
2021/10/11 07:38:28;;;;;;;;;9.50;7.50;;;;;13.92;71.16;102737.44;5093387;27;45251;-83
2021/10/11 07:40:54;;;;;;;;;9.25;6.75;;;;;13.95;70.96;102735.63;5062268;28;46202;-83
2021/10/11 07:43:19;;;;;;;;;9.25;9.25;;;;;13.93;70.69;102737.41;5078500;28;46081;-83
2021/10/11 07:45:45;;;;;;;;;6.50;6.50;;;;;13.90;71.01;102745.38;5081039;28;45221;-83
2021/10/11 07:48:10;;;;;;;;;9.75;8.00;;;;;13.93;70.71;102745.34;5081476;28;45285;-83
2021/10/11 07:50:36;;;;;;;;;6.75;5.75;;;;;13.96;70.49;102749.72;5080901;28;45525;-84
2021/10/11 07:53:01;;;;;;;;;6.50;6.50;;;;;13.94;70.28;102748.88;5079998;27;46342;-83
2021/10/11 07:55:27;;;;;;;;;7.50;7.00;;;;;13.99;70.61;102754.97;5081629;28;45242;-83
2021/10/11 07:57:52;;;;;;;;;7.75;6.75;;;;;13.97;70.07;102745.31;5078968;27;45355;-83
2021/10/11 08:00:19;;;;;;;;;9.25;7.50;;;;;14.02;69.98;102751.41;5081292;28;45491;-83
2021/10/11 08:02:48;;;;;;;;;6.00;4.25;;;;;14.00;70.20;102746.13;5080574;28;45293;-83
2021/10/11 08:05:14;;;;;;;;;7.00;3.75;;;;;14.03;70.14;102745.19;5081490;28;45640;-83
2021/10/11 08:07:41;;;;;;;;;7.75;6.00;;;;;14.10;70.19;102754.78;5080445;27;45238;-83
2021/10/11 08:10:08;;;;;;;;;7.00;7.00;;;;;14.16;69.97;102753.81;5080843;27;45232;-83
2021/10/11 08:12:33;;;;;;;;;4.50;4.50;;;;;14.17;69.81;102750.31;5080504;27;46477;-83
2021/10/11 08:14:58;;;;;;;;;8.50;5.00;;;;;14.17;69.08;102748.50;5073531;27;45484;-83
2021/10/11 08:17:24;;;;;;;;;7.25;5.00;;;;;14.23;69.05;102760.75;5073985;27;45472;-84
2021/10/11 08:19:49;;;;;;;;;7.50;6.00;;;;;14.23;68.81;102762.53;5076743;28;45505;-82
2021/10/11 08:22:15;;;;;;;;;4.50;2.75;;;;;14.24;68.72;102759.00;5045229;28;47330;-83
2021/10/11 08:24:40;;;;;;;;;6.50;4.00;;;;;14.27;68.90;102758.97;5080444;28;45369;-83
2021/10/11 08:27:06;;;;;;;;;5.00;4.75;;;;;14.29;68.68;102762.44;5079561;27;45469;-83
2021/10/11 08:29:32;;;;;;;;;8.25;5.75;;;;;14.33;68.94;102760.59;5061424;28;45980;-83
2021/10/11 08:31:58;;;;;;;;;2.75;2.75;;;;;14.37;68.61;102763.19;5079378;27;45421;-83
2021/10/11 08:34:24;;;;;;;;;8.50;4.00;;;;;14.40;68.17;102759.59;5079419;28;45889;-83
2021/10/11 08:36:49;;;;;;;;;4.00;2.00;;;;;14.36;68.22;102758.81;5078467;27;45378;-83
2021/10/11 08:39:15;;;;;;;;;4.75;4.00;;;;;14.38;68.20;102753.47;5080032;27;45278;-83
2021/10/11 08:41:42;;;;;;;;;4.00;4.00;;;;;14.40;67.76;102757.84;5070593;27;45617;-83
2021/10/11 08:44:10;;;;;;;;;3.75;3.75;;;;;14.42;67.60;102762.25;5044216;28;45765;-84
2021/10/11 08:46:36;;;;;;;;;4.25;4.00;;;;;14.46;67.72;102758.63;5080934;28;45448;-83
2021/10/11 08:49:02;;;;;;;;;2.75;2.75;;;;;14.48;67.75;102756.84;5079410;27;45579;-83
2021/10/11 08:51:28;;;;;;;;;5.00;2.50;;;;;14.54;67.07;102769.97;5073328;27;48072;-82
2021/10/11 08:53:53;;;;;;;;;4.50;3.75;;;;;14.56;67.58;102757.59;5077395;28;45196;-83
2021/10/11 08:56:18;;;;;;;;;3.00;3.00;;;;;14.58;67.52;102761.06;5080365;28;45307;-83
2021/10/11 08:58:49;;;;;;;;;4.00;3.00;;;;;14.69;67.00;102773.25;5073228;27;45477;-83
2021/10/11 09:01:19;;;;;;;;;3.00;3.00;;;;;14.69;67.29;102774.09;5070584;28;46608;-83
2021/10/11 09:03:44;;;;;;;;;10.00;4.25;;;;;14.71;66.96;102772.31;5078128;27;45822;-83
2021/10/11 09:06:11;;;;;;;;;2.50;2.25;;;;;14.78;66.64;102772.19;5079753;28;45362;-83
2021/10/11 09:08:43;;;;;;;;;3.25;3.25;;;;;14.79;66.48;102779.25;5078858;28;45550;-83
2021/10/11 09:11:11;;;;;;;;;2.50;2.50;;;;;14.87;66.38;102779.13;5067050;27;46584;-83
2021/10/11 09:13:51;;;;;;;;;5.75;5.50;;;;;14.83;66.17;102770.34;5078840;28;45605;-82
2021/10/11 09:16:29;;;;;;;;;5.00;3.00;;;;;14.89;66.22;102772.06;5085970;27;45429;-83
2021/10/11 09:18:58;;;;;;;;;4.00;4.00;;;;;14.92;65.98;102777.25;5079483;28;45684;-83
2021/10/11 09:21:31;;;;;;;;;2.75;2.00;;;;;14.98;65.68;102790.41;5061912;28;47759;-83
2021/10/11 09:24:14;;;;;;;;;4.00;3.25;;;;;15.00;65.49;102785.06;5078246;27;45786;-84
2021/10/11 09:26:46;;;;;;;;;3.00;2.00;;;;;15.00;65.14;102788.59;5075381;27;45306;-83
2021/10/11 09:29:12;;;;;;;;;6.75;3.00;;;;;15.05;65.17;102784.09;5078468;28;45409;-82
2021/10/11 09:31:41;;;;;;;;;4.00;2.75;;;;;15.11;64.99;102790.19;5091409;27;46854;-83
2021/10/11 09:34:07;;;;;;;;;4.00;3.00;;;;;15.12;64.85;102778.66;5079455;28;45488;-83
2021/10/11 09:36:40;;;;;;;;;4.25;2.00;;;;;15.15;65.23;102776.84;5072840;28;45450;-85
2021/10/11 09:39:06;;;;;;;;;3.25;2.00;;;;;15.23;65.37;102773.16;5071168;28;45231;-84
2021/10/11 09:41:31;;;;;;;;;4.25;4.25;;;;;15.33;64.77;102777.38;5061203;28;46776;-83
2021/10/11 09:43:57;;;;;;;;;4.00;2.50;;;;;15.42;63.89;102768.34;5077445;28;46389;-84
2021/10/11 09:46:24;;;;;;;;;3.00;2.25;;;;;15.41;64.12;102756.88;5078826;28;45393;-84
2021/10/11 09:48:54;;;;;;;;;4.50;3.00;;;;;15.54;63.99;102767.22;5078090;28;45705;-83
2021/10/11 09:51:24;;;;;;;;;8.25;3.75;;;;;15.53;63.40;102760.19;5069837;28;45495;-84
2021/10/11 09:53:51;;;;;;;;;1.75;1.75;;;;;15.64;62.71;102767.88;5064507;28;45377;-84
2021/10/11 09:56:17;;;;;;;;;2.00;2.00;;;;;15.61;62.78;102758.22;5075595;28;45595;-83
2021/10/11 09:58:42;;;;;;;;;3.00;3.00;;;;;15.64;62.44;102759.94;5079655;28;45409;-83
2021/10/11 10:01:08;;;;;;;;;3.00;2.00;;;;;15.70;62.22;102756.28;5057110;28;48363;-83
2021/10/11 10:03:34;;;;;;;;;2.00;2.00;;;;;15.67;61.97;102751.91;5065534;28;45513;-83
2021/10/11 10:06:01;;;;;;;;;2.50;2.00;;;;;15.70;62.18;102750.97;5072585;28;45787;-83
2021/10/11 10:08:28;;;;;;;;;6.00;1.25;;;;;15.77;61.85;102754.34;5064672;28;45675;-83
2021/10/11 10:10:57;;;;;;;;;1.00;1.00;;;;;15.81;60.92;102758.66;5066779;27;45267;-84
2021/10/11 10:13:26;;;;;;;;;4.00;2.00;;;;;15.82;60.65;102757.78;5078295;28;46093;-84
2021/10/11 10:16:07;;;;;;;;;3.00;1.50;;;;;15.82;60.77;102763.09;5078741;28;45265;-83
2021/10/11 10:18:38;;;;;;;;;2.50;2.00;;;;;15.83;59.93;102767.47;5072104;27;45487;-84
2021/10/11 10:21:03;;;;;;;;;2.25;2.25;;;;;15.79;59.67;102757.84;5074484;28;46369;-84
2021/10/11 10:23:31;;;;;;;;;3.50;1.50;;;;;15.78;59.84;102756.13;5076130;27;45450;-83
2021/10/11 10:25:59;;;;;;;;;4.00;3.00;;;;;15.79;60.18;102757.84;5069713;28;46104;-84
2021/10/11 10:28:29;;;;;;;;;6.00;2.25;;;;;15.76;60.11;102753.47;5071758;28;45563;-83
2021/10/11 10:31:02;;;;;;;;;2.25;2.25;;;;;15.80;59.55;102749.88;5077540;28;45512;-83
2021/10/11 10:33:41;;;;;;;;;1.25;1.25;;;;;15.88;59.44;102760.28;5073540;27;45296;-83
2021/10/11 10:36:23;;;;;;;;;2.25;1.00;;;;;15.96;59.69;102755.66;5074129;28;45374;-84
2021/10/11 10:39:05;;;;;;;;;3.00;3.00;;;;;16.02;59.45;102772.34;5049728;28;47211;-84
2021/10/11 10:41:31;;;;;;;;;3.75;2.00;;;;;16.02;58.84;102772.34;5072541;28;45446;-84
2021/10/11 10:44:08;;;;;;;;;3.25;3.00;;;;;16.01;58.46;102763.53;5076095;27;45748;-85
2021/10/11 10:46:33;;;;;;;;;2.00;2.00;;;;;16.02;58.95;102767.94;5080852;27;45504;-84
2021/10/11 10:48:59;;;;;;;;;4.25;4.25;;;;;16.02;58.86;102757.31;5079521;28;47094;-84
2021/10/11 10:51:24;;;;;;;;;3.25;2.50;;;;;16.02;58.96;102752.00;5081960;28;45500;-84
2021/10/11 10:53:57;;;;;;;;;2.00;2.00;;;;;16.00;58.55;102747.66;5077339;28;45517;-84
2021/10/11 10:56:24;;;;;;;;;4.50;2.00;;;;;16.04;58.08;102757.28;5079042;27;45440;-84
2021/10/11 10:59:00;;;;;;;;;2.50;1.25;;;;;16.06;57.88;102759.00;5082143;28;45424;-84
2021/10/11 11:01:27;;;;;;;;;5.00;3.00;;;;;16.12;58.07;102755.34;5079378;27;45627;-84
2021/10/11 11:03:53;;;;;;;;;4.00;2.00;;;;;16.21;57.68;102767.50;5082194;27;45565;-84
2021/10/11 11:06:37;;;;;;;;;1.25;1.25;;;;;16.24;57.01;102764.78;5082588;28;45291;-84
2021/10/11 11:09:02;;;;;;;;;1.75;1.00;;;;;16.30;56.45;102769.94;5082058;27;45476;-84
2021/10/11 11:11:29;;;;;;;;;2.75;1.75;;;;;16.35;56.69;102769.81;5063984;28;48664;-84
2021/10/11 11:13:59;;;;;;;;;3.00;2.00;;;;;16.38;56.69;102767.09;5081162;28;45601;-84
2021/10/11 11:16:27;;;;;;;;;3.25;2.50;;;;;16.36;56.17;102768.91;5081012;27;45433;-84
2021/10/11 11:18:54;;;;;;;;;2.25;2.25;;;;;16.28;56.14;102761.13;5080911;28;45484;-84
2021/10/11 11:21:20;;;;;;;;;1.50;1.50;;;;;16.26;56.43;102764.72;5076163;27;47686;-83
2021/10/11 11:23:45;;;;;;;;;1.00;1.00;;;;;16.20;55.27;102758.66;5064497;27;45367;-84
2021/10/11 11:26:11;;;;;;;;;1.25;1.25;;;;;16.15;54.86;102759.72;5076594;28;45753;-84
2021/10/11 11:28:37;;;;;;;;;3.00;3.00;;;;;16.17;55.15;102764.03;5081459;28;45453;-84
2021/10/11 11:31:08;;;;;;;;;1.25;1.25;;;;;16.13;55.33;102754.41;5079895;27;45657;-84
2021/10/11 11:33:34;;;;;;;;;3.50;2.00;;;;;16.16;53.43;102751.69;5061688;28;45501;-78
2021/10/11 11:36:03;;;;;;;;;2.00;2.00;;;;;16.18;52.00;102757.84;5081330;27;45366;-78
2021/10/11 11:38:35;;;;;;;;;4.00;1.75;;;;;16.18;51.82;102756.97;5080781;27;45374;-78
2021/10/11 11:41:02;;;;;;;;;5.00;2.00;;;;;16.16;53.00;102745.53;5079478;28;45554;-78
2021/10/11 11:43:30;;;;;;;;;3.00;2.00;;;;;16.17;52.53;102728.72;5081132;28;45469;-78
2021/10/11 11:45:58;;;;;;;;;2.00;2.00;;;;;16.30;53.14;102745.16;5081019;27;45477;-78
2021/10/11 11:48:25;;;;;;;;;3.00;2.25;;;;;16.35;52.64;102743.28;5081424;27;45546;-78
2021/10/11 11:50:54;;;;;;;;;5.00;3.00;;;;;16.41;52.59;102736.94;5080998;27;45699;-78
2021/10/11 11:53:21;;;;;;;;;3.00;1.00;;;;;16.50;53.51;102736.69;5062207;28;45477;-78
2021/10/11 11:55:49;;;;;;;;;1.25;1.25;;;;;16.54;52.94;102737.50;5078034;27;45373;-78
2021/10/11 11:58:30;;;;;;;;;2.00;2.00;;;;;16.47;49.74;102735.91;5080519;27;45459;-78
2021/10/11 12:01:09;;;;;;;;;4.00;2.75;;;;;16.41;51.56;102728.97;5081391;28;45528;-78
2021/10/11 12:03:37;;;;;;;;;1.00;1.00;;;;;16.41;51.56;102744.91;5081133;28;45302;-77
2021/10/11 12:06:04;;;;;;;;;4.00;2.75;;;;;16.34;49.66;102736.25;5081469;28;45340;-77
2021/10/11 12:08:30;;;;;;;;;1.00;1.00;;;;;16.32;50.95;102724.81;5080936;27;45692;-78
2021/10/11 12:11:06;;;;;;;;;2.00;2.00;;;;;16.40;53.05;102736.06;5081163;28;46309;-78
2021/10/11 12:13:44;;;;;;;;;2.75;2.75;;;;;16.42;50.04;102730.75;5080502;27;45600;-78
2021/10/11 12:16:12;;;;;;;;;1.00;1.00;;;;;16.40;49.95;102722.78;5081266;28;45242;-78
2021/10/11 12:18:38;;;;;;;;;2.25;2.25;;;;;16.49;51.79;102719.06;5080495;27;45397;-78
2021/10/11 12:21:04;;;;;;;;;6.50;3.50;;;;;16.51;51.55;102714.56;5081275;28;46316;-78
2021/10/11 12:23:39;;;;;;;;;3.50;3.50;;;;;16.58;50.80;102702.00;5079867;27;45339;-78
2021/10/11 12:26:06;;;;;;;;;4.50;4.50;;;;;16.65;51.67;102714.19;5080288;28;45473;-78
2021/10/11 12:28:31;;;;;;;;;3.50;2.00;;;;;16.63;51.53;102712.47;5079319;28;45251;-78
2021/10/11 12:31:05;;;;;;;;;3.50;3.00;;;;;16.62;52.07;102706.28;5069516;28;45785;-78
2021/10/11 12:33:38;;;;;;;;;2.00;2.00;;;;;16.66;52.49;102712.41;5077276;27;45294;-78
2021/10/11 12:36:05;;;;;;;;;5.25;3.25;;;;;16.57;51.04;102694.09;5080808;27;45448;-78
2021/10/11 12:38:39;;;;;;;;;2.75;2.75;;;;;16.44;50.07;102694.41;5077776;27;45582;-78
2021/10/11 12:41:17;;;;;;;;;5.00;4.50;;;;;16.41;51.67;102698.00;5079079;27;46786;-78
2021/10/11 12:43:59;;;;;;;;;3.25;3.25;;;;;16.36;51.44;102696.38;5079709;28;45658;-78
2021/10/11 12:46:25;;;;;;;;;3.75;3.00;;;;;16.34;50.43;102696.44;5071572;28;45583;-78
2021/10/11 12:49:01;;;;;;;;;4.00;2.00;;;;;16.37;50.97;102698.13;5074173;28;45535;-78
2021/10/11 12:51:33;;;;;;;;;2.75;1.00;;;;;16.50;50.89;102702.19;5069340;27;46397;-78
2021/10/11 12:54:17;;;;;;;;;2.25;2.25;;;;;16.57;51.30;102694.94;5079836;28;45562;-78
2021/10/11 12:56:52;;;;;;;;;3.75;3.00;;;;;16.69;50.42;102693.72;5078718;28;45692;-78
2021/10/11 12:59:19;;;;;;;;;3.00;3.00;;;;;16.73;49.99;102694.50;5077757;27;45671;-78
2021/10/11 13:01:45;;;;;;;;;2.75;2.25;;;;;16.72;50.34;102687.44;5078934;28;46225;-78
2021/10/11 13:04:10;;;;;;;;;10.00;6.25;;;;;16.71;51.07;102691.91;5079385;28;45403;-78
2021/10/11 13:06:36;;;;;;;;;4.00;3.25;;;;;16.79;50.68;102702.28;5077160;28;46020;-78
2021/10/11 13:09:04;;;;;;;;;7.00;3.75;;;;;16.77;49.39;102698.81;5078541;28;45691;-78
2021/10/11 13:11:30;;;;;;;;;3.00;3.00;;;;;16.69;49.63;102693.72;5079586;28;46158;-78
2021/10/11 13:13:56;;;;;;;;;5.00;3.25;;;;;16.65;50.54;102692.06;5079056;28;45420;-79
2021/10/11 13:16:23;;;;;;;;;5.25;3.00;;;;;16.59;51.29;102687.81;5078156;28;45219;-78
2021/10/11 13:18:49;;;;;;;;;4.75;2.50;;;;;16.61;50.30;102688.66;5078333;27;45651;-78
2021/10/11 13:21:14;;;;;;;;;5.25;5.25;;;;;16.59;49.94;102673.66;5079051;27;46190;-78
2021/10/11 13:23:42;;;;;;;;;4.75;4.75;;;;;16.69;49.70;102679.59;5078567;28;45282;-78
2021/10/11 13:26:08;;;;;;;;;3.00;3.00;;;;;16.73;49.50;102670.63;5078940;27;45607;-78
2021/10/11 13:28:38;;;;;;;;;2.25;2.25;;;;;16.78;48.80;102671.38;5068224;27;45308;-77
2021/10/11 14:28:11;;;;;;;;;9.25;5.00;;;;;17.00;48.89;102644.19;5079988;27;45415;-78
2021/10/11 14:33:58;;;;;;;;;3.00;3.00;;;;;16.99;48.03;102645.06;5074349;28;46305;-81
2021/10/11 15:58:30;;;;;;;;;5.00;5.00;;;;;16.15;52.23;102635.03;5081068;28;45429;-81
2021/10/11 16:01:00;;;;;;;;;8.75;7.25;;;;;16.13;51.96;102637.72;5081017;27;45297;-81
2021/10/11 16:05:57;;;;;;;;;4.25;4.25;;;;;16.07;51.55;102651.16;5081329;28;45592;-82
2021/10/11 16:08:23;;;;;;;;;4.00;4.00;;;;;16.08;51.36;102645.78;5081320;28;45346;-81
2021/10/11 16:10:49;;;;;;;;;4.75;4.25;;;;;16.02;50.93;102647.69;5081244;28;45552;-81
2021/10/11 16:13:15;;;;;;;;;5.00;5.00;;;;;15.99;51.37;102643.34;5080983;28;45412;-81
2021/10/11 16:15:40;;;;;;;;;5.75;5.00;;;;;15.96;51.34;102646.94;5081421;28;45466;-81
2021/10/11 16:18:05;;;;;;;;;5.50;5.00;;;;;15.91;51.70;102651.50;5080590;27;45366;-82
2021/10/11 16:20:31;;;;;;;;;6.25;5.25;;;;;15.88;51.82;102654.22;5081261;28;45437;-82
2021/10/11 16:22:56;;;;;;;;;6.75;6.00;;;;;15.85;51.58;102660.47;5080803;28;45255;-81
2021/10/11 16:25:22;;;;;;;;;4.00;4.00;;;;;15.82;51.75;102657.03;5081374;27;45363;-81
2021/10/11 16:27:47;;;;;;;;;5.75;5.75;;;;;15.78;51.32;102652.72;5080481;28;45433;-81
2021/10/11 16:30:13;;;;;;;;;4.75;4.00;;;;;15.79;51.38;102657.09;5081338;28;45520;-81
2021/10/11 16:32:38;;;;;;;;;5.00;4.00;;;;;15.77;51.51;102662.44;5080480;27;45231;-81
2021/10/11 16:35:04;;;;;;;;;6.00;5.00;;;;;15.75;51.03;102657.16;5081043;27;45154;-81
2021/10/11 16:37:29;;;;;;;;;4.25;4.00;;;;;15.74;51.63;102662.50;5080359;28;45165;-81
2021/10/11 16:39:55;;;;;;;;;2.50;2.50;;;;;15.70;51.41;102669.69;5079732;28;45778;-81
2021/10/11 16:42:20;;;;;;;;;3.00;3.00;;;;;15.66;51.62;102661.81;5079251;28;46478;-81
2021/10/11 16:44:45;;;;;;;;;5.00;5.00;;;;;15.61;51.96;102662.81;5080731;28;45294;-81
2021/10/11 16:47:11;;;;;;;;;6.00;4.25;;;;;15.61;52.31;102672.53;5080819;27;45254;-81
2021/10/11 16:49:38;;;;;;;;;5.75;5.25;;;;;15.60;52.34;102665.50;5080039;28;45202;-81
2021/10/11 16:52:04;;;;;;;;;8.25;4.50;;;;;15.61;52.75;102668.09;5080661;27;45460;-81
2021/10/11 16:54:30;;;;;;;;;6.75;4.50;;;;;15.53;52.88;102664.78;5080881;28;45331;-81
2021/10/11 16:56:55;;;;;;;;;3.50;3.25;;;;;15.54;52.93;102661.19;5080559;27;46151;-82
2021/10/11 16:59:21;;;;;;;;;5.50;4.50;;;;;15.53;53.20;102664.78;5080378;27;45537;-81
2021/10/11 17:01:46;;;;;;;;;8.00;6.00;;;;;15.48;53.10;102662.22;5080168;28;46455;-81
2021/10/11 17:04:11;;;;;;;;;6.50;4.75;;;;;15.46;53.01;102657.88;5080432;28;45297;-81
2021/10/11 17:06:38;;;;;;;;;4.25;4.00;;;;;15.45;53.29;102661.41;5080984;27;45409;-82
2021/10/11 17:09:03;;;;;;;;;5.00;4.00;;;;;15.44;53.28;102663.19;5080318;28;45436;-82
2021/10/11 17:11:30;;;;;;;;;5.75;4.50;;;;;15.37;53.41;102653.66;5079895;28;45526;-82
2021/10/11 17:13:59;;;;;;;;;5.25;5.25;;;;;15.39;53.46;102670.38;5080080;27;45576;-82
2021/10/11 17:16:26;;;;;;;;;8.25;5.75;;;;;15.31;54.06;102662.59;5080039;27;45457;-81
2021/10/11 17:18:51;;;;;;;;;7.00;6.00;;;;;15.29;53.75;102661.75;5080362;28;45330;-81
2021/10/11 17:21:16;;;;;;;;;9.50;5.25;;;;;15.27;54.82;102661.81;5080123;27;45385;-81
2021/10/11 17:23:42;;;;;;;;;4.00;4.00;;;;;15.22;54.21;102662.81;5079914;28;45418;-81
2021/10/11 17:26:07;;;;;;;;;7.00;6.00;;;;;15.20;54.10;102668.13;5080155;28;45336;-82
2021/10/11 17:28:33;;;;;;;;;10.50;7.50;;;;;15.13;54.84;102659.47;5080152;28;45591;-82
2021/10/11 17:30:59;;;;;;;;;6.25;6.25;;;;;15.13;54.50;102663.88;5079087;27;45288;-82
2021/10/11 17:33:24;;;;;;;;;5.00;5.00;;;;;15.09;54.82;102663.06;5078375;28;45275;-81
2021/10/11 17:35:50;;;;;;;;;10.50;7.50;;;;;15.08;55.09;102661.34;5080306;28;45642;-81
2021/10/11 17:38:15;;;;;;;;;4.00;3.75;;;;;15.03;54.79;102666.72;5079610;28;45245;-81
2021/10/11 17:40:41;;;;;;;;;8.00;6.00;;;;;15.00;55.01;102669.44;5077625;27;46199;-81
2021/10/11 17:43:06;;;;;;;;;7.50;5.00;;;;;14.96;55.33;102668.63;5078894;28;45494;-81
2021/10/11 17:45:32;;;;;;;;;9.00;8.50;;;;;14.98;55.00;102670.38;5068705;28;45434;-81
2021/10/11 17:47:58;;;;;;;;;6.00;6.00;;;;;14.95;56.23;102674.84;5077810;28;45501;-81
2021/10/11 17:50:27;;;;;;;;;9.75;7.75;;;;;14.93;55.28;102681.06;5090779;27;45376;-82
2021/10/11 17:52:55;;;;;;;;;12.50;7.50;;;;;14.86;56.43;102682.97;5084379;27;45396;-82
2021/10/11 17:55:24;;;;;;;;;9.25;8.25;;;;;14.83;56.38;102680.34;5086786;27;45323;-81
2021/10/11 17:57:50;;;;;;;;;8.50;8.50;;;;;14.78;56.94;102688.38;5068228;28;45388;-81
2021/10/11 18:00:16;;;;;;;;;8.50;6.75;;;;;14.77;56.32;102694.56;5086684;27;45392;-81
2021/10/11 18:02:41;;;;;;;;;9.25;7.50;;;;;14.74;56.94;102690.19;5085650;27;45409;-81
2021/10/11 18:05:07;;;;;;;;;9.00;7.50;;;;;14.69;57.12;102694.69;5085548;27;45426;-80
2021/10/11 18:07:33;;;;;;;;;10.00;8.50;;;;;14.66;57.40;102693.91;5084644;27;45620;-80
2021/10/11 18:10:01;;;;;;;;;10.00;6.50;;;;;14.62;56.82;102687.78;5085206;27;45416;-80
2021/10/11 18:12:27;;;;;;;;;9.00;6.25;;;;;14.66;57.18;102693.91;5089072;27;45386;-80
2021/10/11 18:14:55;;;;;;;;;6.25;6.25;;;;;14.62;56.86;102693.94;5086336;28;45244;-81
2021/10/11 18:17:21;;;;;;;;;10.25;8.00;;;;;14.61;57.00;102694.88;5084348;27;45563;-80
2021/10/11 18:19:47;;;;;;;;;8.75;8.25;;;;;14.61;57.26;102705.47;5086791;27;45404;-80
2021/10/11 18:22:13;;;;;;;;;9.25;6.75;;;;;14.62;57.21;102698.38;5085119;28;45408;-80
2021/10/11 18:24:38;;;;;;;;;9.00;8.25;;;;;14.59;57.60;102698.44;5085429;27;45370;-80
2021/10/11 18:27:04;;;;;;;;;5.75;5.75;;;;;14.62;57.44;102708.94;5084601;27;45471;-80
2021/10/11 18:29:29;;;;;;;;;8.00;8.00;;;;;14.59;57.70;102707.22;5085829;27;46259;-80
2021/10/11 18:31:55;;;;;;;;;10.75;9.25;;;;;14.57;57.90;102706.38;5085852;27;45282;-80
2021/10/11 18:34:20;;;;;;;;;7.25;6.50;;;;;14.58;58.07;102699.34;5085071;27;45446;-80
2021/10/11 18:36:46;;;;;;;;;11.50;9.25;;;;;14.56;57.91;102691.44;5085929;27;45634;-80
2021/10/11 18:39:11;;;;;;;;;12.00;10.50;;;;;14.58;58.07;102691.41;5084338;28;47326;-81
2021/10/11 18:41:37;;;;;;;;;8.75;8.00;;;;;14.60;58.26;102697.53;5081901;28;45341;-81
2021/10/11 18:44:03;;;;;;;;;17.00;10.00;;;;;14.56;58.11;102682.63;5086186;27;45247;-81
2021/10/11 18:46:29;;;;;;;;;10.50;8.50;;;;;14.55;58.29;102689.69;5084774;27;45498;-81
2021/10/11 18:48:54;;;;;;;;;11.50;10.50;;;;;14.55;58.36;102696.75;5082986;27;46121;-81
2021/10/11 18:51:21;;;;;;;;;14.00;11.50;;;;;14.55;58.88;102697.63;5084122;27;45276;-81
2021/10/11 18:53:47;;;;;;;;;11.25;10.25;;;;;14.48;58.67;102694.22;5096834;27;45452;-81
2021/10/11 18:56:12;;;;;;;;;10.00;9.00;;;;;14.47;58.93;102694.25;5084880;27;46846;-81
2021/10/11 18:58:38;;;;;;;;;14.50;10.25;;;;;14.48;58.91;102707.44;5084381;27;45531;-81
2021/10/11 19:01:03;;;;;;;;;9.00;7.25;;;;;14.43;59.06;102696.06;5088974;27;45334;-81
2021/10/11 19:03:29;;;;;;;;;10.75;9.75;;;;;14.47;59.07;102705.69;5083833;27;45927;-83
2021/10/11 19:05:55;;;;;;;;;13.25;10.25;;;;;14.42;59.64;102707.53;5074977;27;45405;-85
2021/10/11 19:08:21;;;;;;;;;13.25;9.25;;;;;14.38;60.32;102714.66;5082014;28;46351;-82
2021/10/11 19:10:47;;;;;;;;;9.50;7.00;;;;;14.34;60.50;102704.19;5080980;27;45426;-82
2021/10/11 19:13:14;;;;;;;;;5.75;5.25;;;;;14.32;60.51;102705.97;5081890;27;45247;-83
2021/10/11 19:15:41;;;;;;;;;8.00;7.25;;;;;14.25;60.83;102708.72;5077731;27;45554;-84
2021/10/11 19:18:07;;;;;;;;;1.75;1.75;;;;;14.26;60.77;102706.94;5070328;27;46153;-82